createdAt,value
2023-04-02T00:01:23.005Z,98999.50
2023-04-02T00:03:54.055Z,99002.34
2023-04-02T00:06:32.469Z,99001.50
2023-04-02T00:09:15.990Z,98999.88
2023-04-02T00:11:49.581Z,99004.59
2023-04-02T00:14:36.504Z,99007.47
2023-04-02T00:17:05.725Z,99013.81
2023-04-02T00:19:44.676Z,99011.31
2023-04-02T00:22:19.515Z,99013.97
2023-04-02T00:24:50.097Z,99016.63
2023-04-02T00:27:17.474Z,99017.66
2023-04-02T00:29:54.406Z,99012.75
2023-04-02T00:32:30.904Z,99009.28
2023-04-02T00:34:59.163Z,99024.41
2023-04-02T00:37:38.560Z,99019.09
2023-04-02T00:40:19.558Z,99022.75
2023-04-02T00:42:48.019Z,99022.75
2023-04-02T00:45:37.840Z,99023.16
2023-04-02T00:48:52.860Z,99026.84
2023-04-02T00:51:41.680Z,99027.03
2023-04-02T00:54:15.838Z,99025.19
2023-04-02T00:56:48.004Z,99017.41
2023-04-02T00:59:26.755Z,99028.84
2023-04-02T01:02:22.546Z,99023.53
2023-04-02T01:05:02.832Z,99024.56
2023-04-02T01:07:51.172Z,99028.84
2023-04-02T01:10:31.613Z,99037.84
2023-04-02T01:13:13.843Z,99032.53
2023-04-02T01:15:51.437Z,99035.19
2023-04-02T01:19:08.624Z,99037.03
2023-04-02T01:22:11.930Z,99035.41
2023-04-02T01:24:39.028Z,99043.38
2023-04-02T01:27:18.594Z,99045.22
2023-04-02T01:29:56.549Z,99046.03
2023-04-02T01:32:27.062Z,99047.88
2023-04-02T01:34:55.832Z,99046.25
2023-04-02T01:37:51.838Z,99047.25
2023-04-02T01:40:41.813Z,99043.56
2023-04-02T01:43:29.978Z,99054.22
2023-04-02T01:46:06.536Z,99051.56
2023-04-02T01:48:33.799Z,99055.22
2023-04-02T01:51:03.955Z,99060.34
2023-04-02T01:53:31.497Z,99064.84
2023-04-02T01:56:02.582Z,99070.97
2023-04-02T01:58:32.658Z,99070.97
2023-04-02T02:01:07.100Z,99067.31
2023-04-02T02:03:35.456Z,99074.25
2023-04-02T02:06:06.524Z,99065.47
2023-04-02T02:08:45.922Z,99069.75
2023-04-02T02:11:22.876Z,99075.06
2023-04-02T02:14:00.728Z,99075.06
2023-04-02T02:16:31.744Z,99068.94
2023-04-02T02:19:03.079Z,99074.25
2023-04-02T02:21:39.850Z,99076.91
2023-04-02T02:24:31.571Z,99078.75
2023-04-02T02:27:24.260Z,99083.66
2023-04-02T02:30:11.324Z,99082.84
2023-04-02T02:33:07.059Z,99091.81
2023-04-02T02:35:50.811Z,99090.16
2023-04-02T02:38:41.232Z,99101.63
2023-04-02T02:41:37.472Z,99097.34
2023-04-02T02:44:10.656Z,99096.72
2023-04-02T02:46:46.697Z,99098.56
2023-04-02T02:49:20.040Z,99106.31
2023-04-02T02:52:03.461Z,99103.06
2023-04-02T02:55:13.172Z,99105.72
2023-04-02T02:57:59.859Z,99117.16
2023-04-02T03:00:31.902Z,99109.38
2023-04-02T03:03:00.735Z,99115.69
2023-04-02T03:05:31.199Z,99116.50
2023-04-02T03:08:10.474Z,99123.66
2023-04-02T03:10:56.387Z,99122.84
2023-04-02T03:13:29.233Z,99124.69
2023-04-02T03:16:33.312Z,99126.53
2023-04-02T03:19:30.096Z,99128.56
2023-04-02T03:22:08.556Z,99133.88
2023-04-02T03:25:16.221Z,99142.88
2023-04-02T03:27:49.363Z,99138.59
2023-04-02T03:30:43.921Z,99140.41
2023-04-02T03:33:23.897Z,99144.88
2023-04-02T03:36:30.318Z,99147.56
2023-04-02T03:39:15.232Z,99148.56
2023-04-02T03:42:08.487Z,99153.06
2023-04-02T03:44:52.503Z,99157.56
2023-04-02T03:48:19.113Z,99160.22
2023-04-02T03:51:03.935Z,99153.06
2023-04-02T03:53:32.452Z,99164.50
2023-04-02T03:56:01.526Z,99164.50
2023-04-02T03:58:47.656Z,99170.84
2023-04-02T04:01:31.642Z,99173.50
2023-04-02T04:04:10.384Z,99171.88
2023-04-02T04:06:41.900Z,99177.19
2023-04-02T04:09:29.654Z,99179.84
2023-04-02T04:12:36.202Z,99181.47
2023-04-02T04:15:22.199Z,99184.34
2023-04-02T04:18:40.839Z,99191.50
2023-04-02T04:21:30.810Z,99188.84
2023-04-02T04:24:20.235Z,99202.13
2023-04-02T04:27:17.087Z,99194.16
2023-04-02T04:30:30.171Z,99203.75
2023-04-02T04:33:23.059Z,99207.44
2023-04-02T04:35:59.168Z,99213.78
2023-04-02T04:38:35.312Z,99213.78
2023-04-02T04:41:24.264Z,99213.78
2023-04-02T04:44:17.230Z,99216.44
2023-04-02T04:47:03.354Z,99223.59
2023-04-02T04:49:41.638Z,99229.72
2023-04-02T04:52:33.924Z,99227.06
2023-04-02T04:55:03.521Z,99237.69
2023-04-02T04:57:38.753Z,99236.88
2023-04-02T05:00:30.624Z,99234.84
2023-04-02T05:03:09.139Z,99249.97
2023-04-02T05:05:40.636Z,99250.78
2023-04-02T05:08:39.417Z,99256.09
2023-04-02T05:11:41.212Z,99264.06
2023-04-02T05:14:43.303Z,99260.59
2023-04-02T05:18:11.005Z,99265.09
2023-04-02T05:21:19.488Z,99275.53
2023-04-02T05:24:24.905Z,99273.88
2023-04-02T05:27:00.247Z,99285.34
2023-04-02T05:29:36.119Z,99282.69
2023-04-02T05:32:25.845Z,99291.47
2023-04-02T05:34:56.004Z,99287.81
2023-04-02T05:37:28.060Z,99299.06
2023-04-02T05:40:11.000Z,99301.56
2023-04-02T05:42:39.948Z,99302.38
2023-04-02T05:45:13.515Z,99308.69
2023-04-02T05:47:44.431Z,99305.19
2023-04-02T05:50:30.563Z,99313.00
2023-04-02T05:53:14.458Z,99308.50
2023-04-02T05:56:11.218Z,99324.25
2023-04-02T05:58:49.291Z,99323.25
2023-04-02T06:01:47.209Z,99333.06
2023-04-02T06:04:57.649Z,99335.50
2023-04-02T06:07:41.612Z,99338.84
2023-04-02T06:10:25.735Z,99341.66
2023-04-02T06:13:08.627Z,99350.44
2023-04-02T06:15:39.970Z,99356.44
2023-04-02T06:18:24.864Z,99356.44
2023-04-02T06:20:53.559Z,99362.38
2023-04-02T06:23:38.044Z,99362.16
2023-04-02T06:26:31.611Z,99361.16
2023-04-02T06:29:37.964Z,99374.28
2023-04-02T06:32:08.882Z,99376.75
2023-04-02T06:34:42.313Z,99374.91
2023-04-02T06:37:36.206Z,99379.00
2023-04-02T06:40:50.331Z,99373.69
2023-04-02T06:44:01.028Z,99378.66
2023-04-02T06:46:52.423Z,99390.94
2023-04-02T06:49:51.024Z,99397.69
2023-04-02T06:52:45.907Z,99400.34
2023-04-02T06:55:48.857Z,99411.66
2023-04-02T06:58:21.221Z,99412.28
2023-04-02T07:00:50.951Z,99414.94
2023-04-02T07:03:32.138Z,99421.91
2023-04-02T07:06:05.272Z,99427.84
2023-04-02T07:08:33.932Z,99431.16
2023-04-02T07:11:01.278Z,99433.81
2023-04-02T07:13:29.143Z,99440.56
2023-04-02T07:15:56.840Z,99441.41
2023-04-02T07:18:32.202Z,99438.75
2023-04-02T07:21:01.852Z,99445.69
2023-04-02T07:23:29.130Z,99451.69
2023-04-02T07:25:57.400Z,99457.81
2023-04-02T07:28:24.533Z,99456.59
2023-04-02T07:30:52.297Z,99464.59
2023-04-02T07:33:25.909Z,99465.25
2023-04-02T07:35:55.654Z,99474.91
2023-04-02T07:38:23.054Z,99471.03
2023-04-02T07:40:50.359Z,99476.78
2023-04-02T07:43:17.315Z,99479.06
2023-04-02T07:45:44.372Z,99481.34
2023-04-02T07:48:14.190Z,99488.16
2023-04-02T07:50:41.744Z,99493.91
2023-04-02T07:53:37.771Z,99497.22
2023-04-02T07:56:05.944Z,99500.50
2023-04-02T07:58:33.692Z,99496.63
2023-04-02T08:01:01.675Z,99507.09
2023-04-02T08:03:29.492Z,99507.72
2023-04-02T08:05:58.749Z,99511.84
2023-04-02T08:08:26.218Z,99510.81
2023-04-02T08:10:53.280Z,99510.66
2023-04-02T08:13:20.362Z,99513.94
2023-04-02T08:15:48.270Z,99521.94
2023-04-02T08:18:15.221Z,99522.75
2023-04-02T08:20:42.196Z,99532.38
2023-04-02T08:23:17.066Z,99533.84
2023-04-02T08:25:47.076Z,99536.53
2023-04-02T08:28:14.350Z,99548.63
2023-04-02T08:30:41.757Z,99547.59
2023-04-02T08:33:08.849Z,99555.38
2023-04-02T08:35:36.332Z,99564.84
2023-04-02T08:38:03.695Z,99559.31
2023-04-02T08:40:41.635Z,99561.59
2023-04-02T08:43:38.715Z,99565.91
2023-04-02T08:46:19.019Z,99574.34
2023-04-02T08:48:55.339Z,99571.50
2023-04-02T08:51:30.743Z,99576.47
2023-04-02T08:54:49.234Z,99579.75
2023-04-02T08:57:44.395Z,99588.34
2023-04-02T09:00:44.027Z,99594.78
2023-04-02T09:03:40.287Z,99601.19
2023-04-02T09:06:14.715Z,99602.47
2023-04-02T09:08:46.677Z,99610.06
2023-04-02T09:11:47.757Z,99612.97
2023-04-02T09:14:21.456Z,99617.91
2023-04-02T09:17:01.845Z,99616.72
2023-04-02T09:19:40.878Z,99619.63
2023-04-02T09:22:31.671Z,99619.88
2023-04-02T09:25:02.458Z,99628.13
2023-04-02T09:27:35.420Z,99637.19
2023-04-02T09:30:30.343Z,99628.59
2023-04-02T09:33:09.043Z,99633.38
2023-04-02T09:35:57.319Z,99645.72
2023-04-02T09:38:30.762Z,99641.69
2023-04-02T09:41:04.635Z,99638.25
2023-04-02T09:43:39.223Z,99646.66
2023-04-02T09:46:24.465Z,99651.22
2023-04-02T09:49:01.976Z,99649.00
2023-04-02T09:51:34.705Z,99653.94
2023-04-02T09:54:04.590Z,99656.03
2023-04-02T09:56:35.806Z,99658.94
2023-04-02T09:59:21.871Z,99657.53
2023-04-02T10:01:54.879Z,99663.94
2023-04-02T10:04:47.794Z,99668.47
2023-04-02T10:07:36.938Z,99667.72
2023-04-02T10:10:18.697Z,99669.81
2023-04-02T10:13:18.657Z,99676.84
2023-04-02T10:16:12.762Z,99674.22
2023-04-02T10:18:58.778Z,99682.66
2023-04-02T10:21:37.239Z,99691.38
2023-04-02T10:24:15.672Z,99690.97
2023-04-02T10:27:09.448Z,99691.44
2023-04-02T10:30:05.267Z,99693.53
2023-04-02T10:33:16.606Z,99700.78
2023-04-02T10:36:30.271Z,99706.38
2023-04-02T10:39:15.837Z,99701.25
2023-04-02T10:41:58.166Z,99709.28
2023-04-02T10:44:45.315Z,99710.94
2023-04-02T10:47:27.359Z,99715.06
2023-04-02T10:50:33.976Z,99713.88
2023-04-02T10:53:21.174Z,99712.22
2023-04-02T10:56:08.707Z,99709.75
2023-04-02T10:58:57.548Z,99718.22
2023-04-02T11:01:30.454Z,99720.47
2023-04-02T11:04:01.833Z,99728.28
2023-04-02T11:06:56.080Z,99732.03
2023-04-02T11:09:37.653Z,99739.84
2023-04-02T11:12:07.141Z,99739.44
2023-04-02T11:14:34.248Z,99740.88
2023-04-02T11:17:03.311Z,99741.50
2023-04-02T11:19:35.996Z,99747.47
2023-04-02T11:22:15.267Z,99743.56
2023-04-02T11:24:53.424Z,99751.78
2023-04-02T11:27:29.553Z,99750.16
2023-04-02T11:30:06.737Z,99757.34
2023-04-02T11:32:36.629Z,99759.81
2023-04-02T11:35:31.225Z,99769.09
2023-04-02T11:38:23.541Z,99771.50
2023-04-02T11:40:58.762Z,99770.25
2023-04-02T11:43:35.441Z,99776.03
2023-04-02T11:46:41.977Z,99779.72
2023-04-02T11:49:40.696Z,99780.75
2023-04-02T11:52:46.335Z,99793.09
2023-04-02T11:55:35.146Z,99807.50
2023-04-02T11:58:07.672Z,99810.19
2023-04-02T12:01:25.743Z,99820.44
2023-04-02T12:04:26.473Z,99814.63
2023-04-02T12:07:34.896Z,99825.63
2023-04-02T12:10:24.857Z,99824.69
2023-04-02T12:12:51.965Z,99822.16
2023-04-02T12:15:46.955Z,99826.56
2023-04-02T12:18:22.137Z,99824.84
2023-04-02T12:20:56.241Z,99829.66
2023-04-02T12:23:33.945Z,99832.44
2023-04-02T12:26:06.441Z,99836.41
2023-04-02T12:28:34.480Z,99835.25
2023-04-02T12:31:17.504Z,99837.44
2023-04-02T12:33:45.736Z,99843.09
2023-04-02T12:36:14.370Z,99849.81
2023-04-02T12:38:51.986Z,99866.56
2023-04-02T12:41:30.285Z,99865.94
2023-04-02T12:44:06.282Z,99863.19
2023-04-02T12:46:35.462Z,99870.28
2023-04-02T12:49:07.608Z,99873.09
2023-04-02T12:51:36.981Z,99872.66
2023-04-02T12:54:04.462Z,99869.38
2023-04-02T12:56:31.610Z,99874.88
2023-04-02T12:59:01.260Z,99874.72
2023-04-02T13:01:31.669Z,99879.84
2023-04-02T13:04:12.530Z,99885.19
2023-04-02T13:06:47.424Z,99892.16
2023-04-02T13:09:31.361Z,99892.34
2023-04-02T13:11:59.115Z,99894.00
2023-04-02T13:14:26.935Z,99890.69
2023-04-02T13:16:54.830Z,99891.53
2023-04-02T13:19:31.140Z,99894.75
2023-04-02T13:22:01.950Z,99900.44
2023-04-02T13:24:33.442Z,99900.19
2023-04-02T13:27:03.813Z,99900.72
2023-04-02T13:29:36.152Z,99911.09
2023-04-02T13:32:07.720Z,99906.16
2023-04-02T13:34:34.665Z,99909.00
2023-04-02T13:37:01.670Z,99915.31
2023-04-02T13:39:30.208Z,99916.81
2023-04-02T13:42:04.444Z,99917.00
2023-04-02T13:44:35.827Z,99919.66
2023-04-02T13:47:03.085Z,99919.81
2023-04-02T13:49:31.068Z,99928.00
2023-04-02T13:52:04.185Z,99925.72
2023-04-02T13:54:49.419Z,99935.56
2023-04-02T13:57:17.344Z,99935.72
2023-04-02T13:59:44.422Z,99941.03
2023-04-02T14:02:18.805Z,99942.06
2023-04-02T14:04:51.029Z,99944.72
2023-04-02T14:07:55.459Z,99949.22
2023-04-02T14:10:57.590Z,99956.22
2023-04-02T14:13:45.363Z,99964.88
2023-04-02T14:16:27.940Z,99963.84
2023-04-02T14:19:12.514Z,99976.34
2023-04-02T14:22:11.202Z,99976.50
2023-04-02T14:25:02.239Z,99980.66
2023-04-02T14:27:48.172Z,99981.84
2023-04-02T14:30:53.567Z,99984.69
2023-04-02T14:34:12.713Z,99992.69
2023-04-02T14:36:56.453Z,99992.03
2023-04-02T14:39:46.314Z,99995.53
2023-04-02T14:42:40.398Z,100004.16
2023-04-02T14:45:26.353Z,100005.00
2023-04-02T14:48:25.646Z,100014.00
2023-04-02T14:51:14.504Z,100015.00
2023-04-02T14:53:56.352Z,100017.69
2023-04-02T14:56:25.580Z,100021.16
2023-04-02T14:59:34.291Z,100028.72
2023-04-02T15:02:30.381Z,100030.88
2023-04-02T15:05:04.218Z,100031.72
2023-04-02T15:07:41.642Z,100027.22
2023-04-02T15:10:30.859Z,100040.34
2023-04-02T15:12:59.809Z,100045.84
2023-04-02T15:15:58.675Z,100050.38
2023-04-02T15:18:25.682Z,100054.41
2023-04-02T15:21:29.155Z,100060.06
2023-04-02T15:24:26.736Z,100061.28
2023-04-02T15:27:07.152Z,100072.63
2023-04-02T15:30:07.349Z,100070.50
2023-04-02T15:32:34.266Z,100081.84
2023-04-02T15:35:28.705Z,100083.88
2023-04-02T15:38:09.108Z,100089.53
2023-04-02T15:41:23.703Z,100086.22
2023-04-02T15:44:30.238Z,100088.59
2023-04-02T15:47:22.526Z,100095.94
2023-04-02T15:50:36.168Z,100091.78
2023-04-02T15:53:26.655Z,100107.91
2023-04-02T15:56:17.847Z,100108.28
2023-04-02T15:59:00.539Z,100105.97
2023-04-02T16:01:49.126Z,100119.44
2023-04-02T16:04:51.732Z,100116.97
2023-04-02T16:07:30.169Z,100118.63
2023-04-02T16:10:42.378Z,100126.78
2023-04-02T16:13:36.937Z,100126.97
2023-04-02T16:16:30.985Z,100136.09
2023-04-02T16:19:34.492Z,100139.78
2023-04-02T16:22:49.725Z,100146.28
2023-04-02T16:25:25.291Z,100149.13
2023-04-02T16:28:26.387Z,100158.25
2023-04-02T16:31:02.222Z,100161.28
2023-04-02T16:34:15.792Z,100172.25
2023-04-02T16:37:04.529Z,100179.09
2023-04-02T16:39:43.790Z,100191.88
2023-04-02T16:42:53.984Z,100187.06
2023-04-02T16:45:47.669Z,100198.06
2023-04-02T16:48:27.737Z,100204.53
2023-04-02T16:51:24.832Z,100201.56
2023-04-02T16:54:32.522Z,100203.72
2023-04-02T16:57:33.854Z,100205.91
2023-04-02T17:00:30.575Z,100215.22
2023-04-02T17:03:12.551Z,100222.53
2023-04-02T17:05:55.750Z,100225.34
2023-04-02T17:08:30.866Z,100233.50
2023-04-02T17:11:08.815Z,100239.16
2023-04-02T17:13:51.374Z,100243.78
2023-04-02T17:16:32.368Z,100255.78
2023-04-02T17:19:00.216Z,100254.44
2023-04-02T17:21:30.961Z,100266.25
2023-04-02T17:24:23.090Z,100269.38
2023-04-02T17:27:05.078Z,100270.72
2023-04-02T17:29:40.567Z,100277.38
2023-04-02T17:32:26.018Z,100282.16
2023-04-02T17:34:53.220Z,100288.00
2023-04-02T17:37:34.828Z,100308.56
2023-04-02T17:40:48.103Z,100310.91
2023-04-02T17:43:36.498Z,100312.38
2023-04-02T17:46:34.936Z,100320.81
2023-04-02T17:49:23.047Z,100331.09
2023-04-02T17:52:22.070Z,100335.75
2023-04-02T17:55:22.098Z,100345.03
2023-04-02T17:58:32.113Z,100346.53
2023-04-02T18:01:30.358Z,100367.25
2023-04-02T18:04:17.196Z,100358.59
2023-04-02T18:07:03.505Z,100376.84
2023-04-02T18:10:11.777Z,100372.69
2023-04-02T18:13:12.428Z,100380.13
2023-04-02T18:16:00.735Z,100386.75
2023-04-02T18:18:58.324Z,100391.38
2023-04-02T18:21:33.001Z,100404.97
2023-04-02T18:24:21.199Z,100405.28
2023-04-02T18:27:16.185Z,100405.59
2023-04-02T18:30:26.669Z,100419.50
2023-04-02T18:33:31.658Z,100420.78
2023-04-02T18:36:22.720Z,100438.84
2023-04-02T18:39:21.928Z,100448.25
2023-04-02T18:42:51.066Z,100457.84
2023-04-02T18:46:17.634Z,100474.38
2023-04-02T18:49:19.503Z,100481.94
2023-04-02T18:51:52.359Z,100492.47
2023-04-02T18:54:41.193Z,100491.72
2023-04-02T18:57:19.825Z,100498.59
2023-04-02T19:00:17.445Z,100508.47
2023-04-02T19:03:11.470Z,100519.09
2023-04-02T19:06:08.922Z,100520.69
2023-04-02T19:08:57.221Z,100526.56
2023-04-02T19:11:29.722Z,100526.31
2023-04-02T19:14:16.479Z,100522.56
2023-04-02T19:17:08.624Z,100524.84
2023-04-02T19:20:18.768Z,100535.03
2023-04-02T19:23:22.289Z,100544.25
2023-04-02T19:26:04.964Z,100544.69
2023-04-02T19:29:16.247Z,100565.34
2023-04-02T19:32:13.189Z,100569.22
2023-04-02T19:34:56.487Z,100572.34
2023-04-02T19:37:57.333Z,100579.03
2023-04-02T19:41:11.581Z,100585.88
2023-04-02T19:43:39.158Z,100581.00
2023-04-02T19:46:06.344Z,100587.44
2023-04-02T19:49:12.476Z,100591.31
2023-04-02T19:51:39.542Z,100607.50
2023-04-02T19:54:06.590Z,100606.94
2023-04-02T19:56:33.869Z,100602.78
2023-04-02T19:59:07.818Z,100611.69
2023-04-02T20:01:44.413Z,100608.22
2023-04-02T20:04:11.646Z,100609.31
2023-04-02T20:06:38.759Z,100615.59
2023-04-02T20:09:07.469Z,100622.84
2023-04-02T20:11:37.110Z,100621.16
2023-04-02T20:14:05.194Z,100618.09
2023-04-02T20:16:32.920Z,100626.31
2023-04-02T20:19:00.073Z,100614.34
2023-04-02T20:21:27.524Z,100618.91
2023-04-02T20:23:55.602Z,100626.16
2023-04-02T20:26:23.229Z,100625.47
2023-04-02T20:28:50.242Z,100635.22
2023-04-02T20:31:18.889Z,100640.66
2023-04-02T20:33:46.564Z,100637.16
2023-04-02T20:36:17.774Z,100646.22
2023-04-02T20:38:45.550Z,100640.38
2023-04-02T20:41:15.582Z,100659.84
2023-04-02T20:43:42.708Z,100650.38
2023-04-02T20:46:12.557Z,100650.66
2023-04-02T20:48:40.216Z,100656.22
2023-04-02T20:51:09.378Z,100661.78
2023-04-02T20:53:38.181Z,100664.56
2023-04-02T20:56:11.912Z,100672.91
2023-04-02T20:58:40.570Z,100679.19
2023-04-02T21:01:19.879Z,100673.16
2023-04-02T21:03:48.234Z,100686.53
2023-04-02T21:06:19.109Z,100686.69
2023-04-02T21:08:46.804Z,100697.66
2023-04-02T21:11:14.315Z,100692.75
2023-04-02T21:13:43.919Z,100699.16
2023-04-02T21:16:14.216Z,100702.91
2023-04-02T21:18:41.247Z,100703.16
2023-04-02T21:21:08.489Z,100703.31
2023-04-02T21:23:35.716Z,100704.53
2023-04-02T21:26:06.216Z,100713.72
2023-04-02T21:28:34.712Z,100700.88
2023-04-02T21:31:10.584Z,100706.44
2023-04-02T21:33:41.789Z,100708.38
2023-04-02T21:36:11.343Z,100708.63
2023-04-02T21:38:47.260Z,100712.34
2023-04-02T21:41:24.307Z,100709.84
2023-04-02T21:43:52.002Z,100714.44
2023-04-02T21:46:23.104Z,100713.75
2023-04-02T21:48:50.980Z,100713.84
2023-04-02T21:51:25.902Z,100713.03
2023-04-02T21:53:54.189Z,100713.03
2023-04-02T21:56:31.595Z,100718.31
2023-04-02T21:59:01.685Z,100715.56
2023-04-02T22:01:32.249Z,100718.19
2023-04-02T22:04:02.342Z,100716.38
2023-04-02T22:06:32.735Z,100728.78
2023-04-02T22:09:04.026Z,100728.88
2023-04-02T22:11:35.711Z,100720.00
2023-04-02T22:14:04.001Z,100720.00
2023-04-02T22:16:33.525Z,100722.66
2023-04-02T22:19:02.963Z,100726.00
2023-04-02T22:21:31.431Z,100720.00
2023-04-02T22:24:04.509Z,100714.72
2023-04-02T22:26:32.948Z,100721.69
2023-04-02T22:29:04.842Z,100719.03
2023-04-02T22:31:34.901Z,100725.00
2023-04-02T22:34:03.861Z,100726.00
2023-04-02T22:36:31.696Z,100719.03
2023-04-02T22:39:00.498Z,100722.66
2023-04-02T22:41:29.271Z,100718.19
2023-04-02T22:43:57.285Z,100716.38
2023-04-02T22:46:25.949Z,100721.69
2023-04-02T22:48:54.213Z,100721.69
2023-04-02T22:51:23.403Z,100722.66
2023-04-02T22:53:52.482Z,100722.66
2023-04-02T22:56:24.006Z,100720.00
2023-04-02T22:58:51.182Z,100716.38
2023-04-02T23:01:29.131Z,100729.72
2023-04-02T23:03:56.620Z,100730.56
2023-04-02T23:06:24.944Z,100728.88
2023-04-02T23:08:52.839Z,100729.16
2023-04-02T23:11:25.922Z,100734.69
2023-04-02T23:13:56.596Z,100721.88
2023-04-02T23:16:26.918Z,100723.94
2023-04-02T23:18:55.397Z,100726.00
2023-04-02T23:21:22.891Z,100731.53
2023-04-02T23:23:51.283Z,100724.00
2023-04-02T23:26:27.066Z,100729.53
2023-04-02T23:28:54.022Z,100725.47
2023-04-02T23:31:22.919Z,100720.59
2023-04-02T23:33:51.810Z,100723.59
2023-04-02T23:36:32.958Z,100720.50
2023-04-02T23:39:09.122Z,100725.34
2023-04-02T23:41:38.504Z,100724.03
2023-04-02T23:44:05.864Z,100727.88
2023-04-02T23:46:33.980Z,100730.91
2023-04-02T23:49:01.961Z,100728.66
2023-04-02T23:51:32.047Z,100731.66
2023-04-02T23:53:59.426Z,100718.97
2023-04-02T23:56:26.980Z,100720.31
2023-04-02T23:58:54.089Z,100720.69
